sensor_id;sensor_type;location;lat;lon;timestamp;P1;durP1;ratioP1;P2;durP2;ratioP2
6426;SDS011;3246;42.664;23.308;2023-11-21T00:02:26;34.37;;;23.33;;
6426;SDS011;3246;42.664;23.308;2023-11-21T00:04:53;37.47;;;24.23;;
6426;SDS011;3246;42.664;23.308;2023-11-21T00:07:19;37.37;;;23.33;;
6426;SDS011;3246;42.664;23.308;2023-11-21T00:09:46;34.57;;;23.53;;
6426;SDS011;3246;42.664;23.308;2023-11-21T00:12:13;42.73;;;26.33;;
6426;SDS011;3246;42.664;23.308;2023-11-21T00:14:41;42.17;;;25.33;;
6426;SDS011;3246;42.664;23.308;2023-11-21T00:17:07;43.73;;;25.47;;
6426;SDS011;3246;42.664;23.308;2023-11-21T00:19:34;43.63;;;27.73;;
6426;SDS011;3246;42.664;23.308;2023-11-21T00:22:01;38.43;;;24.13;;
6426;SDS011;3246;42.664;23.308;2023-11-21T00:24:27;45.63;;;25.47;;
6426;SDS011;3246;42.664;23.308;2023-11-21T00:26:53;42.33;;;24.73;;
6426;SDS011;3246;42.664;23.308;2023-11-21T00:29:20;36.70;;;25.17;;
6426;SDS011;3246;42.664;23.308;2023-11-21T00:31:48;39.73;;;25.70;;
6426;SDS011;3246;42.664;23.308;2023-11-21T00:34:14;37.83;;;23.90;;
6426;SDS011;3246;42.664;23.308;2023-11-21T00:36:41;44.70;;;26.00;;
6426;SDS011;3246;42.664;23.308;2023-11-21T00:39:07;35.37;;;23.17;;
6426;SDS011;3246;42.664;23.308;2023-11-21T00:41:35;32.47;;;21.73;;
6426;SDS011;3246;42.664;23.308;2023-11-21T00:44:01;39.47;;;24.13;;
6426;SDS011;3246;42.664;23.308;2023-11-21T00:46:28;37.53;;;23.77;;
6426;SDS011;3246;42.664;23.308;2023-11-21T00:48:56;41.03;;;23.67;;
6426;SDS011;3246;42.664;23.308;2023-11-21T00:51:22;36.70;;;22.03;;
6426;SDS011;3246;42.664;23.308;2023-11-21T00:53:49;29.23;;;20.90;;
6426;SDS011;3246;42.664;23.308;2023-11-21T00:56:16;35.50;;;24.33;;
6426;SDS011;3246;42.664;23.308;2023-11-21T00:58:42;36.70;;;24.40;;
6426;SDS011;3246;42.664;23.308;2023-11-21T01:01:11;38.03;;;26.53;;
6426;SDS011;3246;42.664;23.308;2023-11-21T01:03:38;42.20;;;25.37;;
6426;SDS011;3246;42.664;23.308;2023-11-21T01:06:06;43.57;;;27.17;;
6426;SDS011;3246;42.664;23.308;2023-11-21T01:08:34;40.87;;;22.87;;
6426;SDS011;3246;42.664;23.308;2023-11-21T01:11:00;36.60;;;23.73;;
6426;SDS011;3246;42.664;23.308;2023-11-21T01:13:27;33.20;;;23.37;;
6426;SDS011;3246;42.664;23.308;2023-11-21T01:15:54;37.13;;;23.30;;
6426;SDS011;3246;42.664;23.308;2023-11-21T01:18:21;39.73;;;24.23;;
6426;SDS011;3246;42.664;23.308;2023-11-21T01:20:50;36.90;;;23.33;;
6426;SDS011;3246;42.664;23.308;2023-11-21T01:23:19;37.17;;;24.57;;
6426;SDS011;3246;42.664;23.308;2023-11-21T01:25:46;40.40;;;23.63;;
6426;SDS011;3246;42.664;23.308;2023-11-21T01:28:12;47.40;;;25.50;;
6426;SDS011;3246;42.664;23.308;2023-11-21T01:30:38;44.90;;;25.27;;
6426;SDS011;3246;42.664;23.308;2023-11-21T01:33:05;39.13;;;24.43;;
6426;SDS011;3246;42.664;23.308;2023-11-21T01:35:32;36.13;;;24.80;;
6426;SDS011;3246;42.664;23.308;2023-11-21T01:37:59;45.63;;;24.93;;
6426;SDS011;3246;42.664;23.308;2023-11-21T01:40:27;37.40;;;23.10;;
6426;SDS011;3246;42.664;23.308;2023-11-21T01:42:54;41.13;;;23.00;;
6426;SDS011;3246;42.664;23.308;2023-11-21T01:45:21;42.13;;;25.23;;
6426;SDS011;3246;42.664;23.308;2023-11-21T01:47:47;37.37;;;24.33;;
6426;SDS011;3246;42.664;23.308;2023-11-21T01:50:15;38.03;;;23.37;;
6426;SDS011;3246;42.664;23.308;2023-11-21T01:52:42;37.57;;;23.37;;
6426;SDS011;3246;42.664;23.308;2023-11-21T01:55:09;32.90;;;21.97;;
6426;SDS011;3246;42.664;23.308;2023-11-21T01:57:37;33.10;;;22.43;;
6426;SDS011;3246;42.664;23.308;2023-11-21T02:00:04;38.77;;;24.13;;
6426;SDS011;3246;42.664;23.308;2023-11-21T02:02:41;45.77;;;23.67;;
6426;SDS011;3246;42.664;23.308;2023-11-21T02:05:07;34.93;;;23.03;;
6426;SDS011;3246;42.664;23.308;2023-11-21T02:07:34;42.93;;;26.30;;
6426;SDS011;3246;42.664;23.308;2023-11-21T02:10:01;50.87;;;25.47;;
6426;SDS011;3246;42.664;23.308;2023-11-21T02:12:27;38.53;;;24.73;;
6426;SDS011;3246;42.664;23.308;2023-11-21T02:14:55;37.23;;;25.47;;
6426;SDS011;3246;42.664;23.308;2023-11-21T02:17:22;40.30;;;24.43;;
6426;SDS011;3246;42.664;23.308;2023-11-21T02:19:48;41.43;;;25.20;;
6426;SDS011;3246;42.664;23.308;2023-11-21T02:22:16;41.87;;;24.90;;
6426;SDS011;3246;42.664;23.308;2023-11-21T02:24:45;41.70;;;25.67;;
6426;SDS011;3246;42.664;23.308;2023-11-21T02:27:12;38.87;;;24.37;;
6426;SDS011;3246;42.664;23.308;2023-11-21T02:29:42;35.73;;;23.83;;
6426;SDS011;3246;42.664;23.308;2023-11-21T02:32:08;38.90;;;24.30;;
6426;SDS011;3246;42.664;23.308;2023-11-21T02:34:35;43.97;;;25.33;;
6426;SDS011;3246;42.664;23.308;2023-11-21T02:37:03;44.17;;;23.37;;
6426;SDS011;3246;42.664;23.308;2023-11-21T02:39:31;37.47;;;24.63;;
6426;SDS011;3246;42.664;23.308;2023-11-21T02:41:58;34.50;;;23.20;;
6426;SDS011;3246;42.664;23.308;2023-11-21T02:44:25;34.83;;;23.33;;
6426;SDS011;3246;42.664;23.308;2023-11-21T02:46:52;34.33;;;22.73;;
6426;SDS011;3246;42.664;23.308;2023-11-21T02:49:18;34.30;;;22.73;;
6426;SDS011;3246;42.664;23.308;2023-11-21T02:51:45;42.17;;;25.30;;
6426;SDS011;3246;42.664;23.308;2023-11-21T02:54:11;38.47;;;25.37;;
6426;SDS011;3246;42.664;23.308;2023-11-21T02:56:38;41.63;;;25.87;;
6426;SDS011;3246;42.664;23.308;2023-11-21T02:59:06;35.20;;;23.33;;
6426;SDS011;3246;42.664;23.308;2023-11-21T03:01:33;35.17;;;22.57;;
6426;SDS011;3246;42.664;23.308;2023-11-21T03:03:59;32.43;;;22.57;;
6426;SDS011;3246;42.664;23.308;2023-11-21T03:06:26;45.67;;;23.23;;
6426;SDS011;3246;42.664;23.308;2023-11-21T03:08:53;39.47;;;22.70;;
6426;SDS011;3246;42.664;23.308;2023-11-21T03:11:19;36.67;;;24.53;;
6426;SDS011;3246;42.664;23.308;2023-11-21T03:13:46;36.03;;;24.37;;
6426;SDS011;3246;42.664;23.308;2023-11-21T03:16:14;34.53;;;23.53;;
6426;SDS011;3246;42.664;23.308;2023-11-21T03:18:40;32.97;;;22.40;;
6426;SDS011;3246;42.664;23.308;2023-11-21T03:21:07;36.13;;;23.70;;
6426;SDS011;3246;42.664;23.308;2023-11-21T03:23:34;31.73;;;21.33;;
6426;SDS011;3246;42.664;23.308;2023-11-21T03:26:00;29.47;;;21.70;;
6426;SDS011;3246;42.664;23.308;2023-11-21T03:28:27;39.47;;;23.23;;
6426;SDS011;3246;42.664;23.308;2023-11-21T03:30:55;37.00;;;24.37;;
6426;SDS011;3246;42.664;23.308;2023-11-21T03:33:23;35.90;;;22.87;;
6426;SDS011;3246;42.664;23.308;2023-11-21T03:35:49;33.07;;;21.83;;
6426;SDS011;3246;42.664;23.308;2023-11-21T03:38:18;32.90;;;21.33;;
6426;SDS011;3246;42.664;23.308;2023-11-21T03:40:44;30.03;;;21.90;;
6426;SDS011;3246;42.664;23.308;2023-11-21T03:43:11;34.87;;;22.07;;
6426;SDS011;3246;42.664;23.308;2023-11-21T03:45:37;32.47;;;21.10;;
6426;SDS011;3246;42.664;23.308;2023-11-21T03:48:05;30.60;;;21.03;;
6426;SDS011;3246;42.664;23.308;2023-11-21T03:50:33;34.97;;;23.37;;
6426;SDS011;3246;42.664;23.308;2023-11-21T03:53:00;31.10;;;20.93;;
6426;SDS011;3246;42.664;23.308;2023-11-21T03:55:26;41.93;;;23.20;;
6426;SDS011;3246;42.664;23.308;2023-11-21T03:57:53;37.80;;;22.67;;
6426;SDS011;3246;42.664;23.308;2023-11-21T04:00:20;35.90;;;20.50;;
6426;SDS011;3246;42.664;23.308;2023-11-21T04:02:48;28.63;;;18.73;;
6426;SDS011;3246;42.664;23.308;2023-11-21T04:05:16;27.70;;;16.53;;
6426;SDS011;3246;42.664;23.308;2023-11-21T04:07:44;24.13;;;16.03;;
6426;SDS011;3246;42.664;23.308;2023-11-21T04:10:10;24.60;;;17.03;;
6426;SDS011;3246;42.664;23.308;2023-11-21T04:12:38;25.67;;;14.90;;
6426;SDS011;3246;42.664;23.308;2023-11-21T04:15:05;22.53;;;15.13;;
6426;SDS011;3246;42.664;23.308;2023-11-21T04:17:33;20.70;;;14.50;;
6426;SDS011;3246;42.664;23.308;2023-11-21T04:20:00;22.10;;;13.17;;
6426;SDS011;3246;42.664;23.308;2023-11-21T04:22:26;22.50;;;15.40;;
6426;SDS011;3246;42.664;23.308;2023-11-21T04:24:54;21.13;;;13.90;;
6426;SDS011;3246;42.664;23.308;2023-11-21T04:27:21;20.43;;;12.97;;
6426;SDS011;3246;42.664;23.308;2023-11-21T04:29:48;19.33;;;14.00;;
6426;SDS011;3246;42.664;23.308;2023-11-21T04:32:14;17.97;;;12.53;;
6426;SDS011;3246;42.664;23.308;2023-11-21T04:34:41;22.50;;;15.43;;
6426;SDS011;3246;42.664;23.308;2023-11-21T04:37:08;17.60;;;11.97;;
6426;SDS011;3246;42.664;23.308;2023-11-21T04:39:35;23.37;;;13.27;;
6426;SDS011;3246;42.664;23.308;2023-11-21T04:42:03;17.07;;;12.80;;
6426;SDS011;3246;42.664;23.308;2023-11-21T04:44:30;15.50;;;11.73;;
6426;SDS011;3246;42.664;23.308;2023-11-21T04:46:56;18.27;;;12.87;;
6426;SDS011;3246;42.664;23.308;2023-11-21T04:49:23;17.60;;;13.70;;
6426;SDS011;3246;42.664;23.308;2023-11-21T04:51:49;21.40;;;13.77;;
6426;SDS011;3246;42.664;23.308;2023-11-21T04:54:16;19.37;;;13.87;;
6426;SDS011;3246;42.664;23.308;2023-11-21T04:56:42;18.73;;;13.43;;
6426;SDS011;3246;42.664;23.308;2023-11-21T04:59:10;24.73;;;14.10;;
6426;SDS011;3246;42.664;23.308;2023-11-21T05:01:37;18.20;;;13.40;;
6426;SDS011;3246;42.664;23.308;2023-11-21T05:04:04;19.73;;;13.53;;
6426;SDS011;3246;42.664;23.308;2023-11-21T05:06:31;25.27;;;14.40;;
6426;SDS011;3246;42.664;23.308;2023-11-21T05:08:57;24.97;;;15.30;;
6426;SDS011;3246;42.664;23.308;2023-11-21T05:11:24;22.87;;;14.17;;
6426;SDS011;3246;42.664;23.308;2023-11-21T05:13:53;21.10;;;15.33;;
6426;SDS011;3246;42.664;23.308;2023-11-21T05:16:22;20.53;;;14.50;;
6426;SDS011;3246;42.664;23.308;2023-11-21T05:18:49;29.93;;;14.50;;
6426;SDS011;3246;42.664;23.308;2023-11-21T05:21:16;20.63;;;14.23;;
6426;SDS011;3246;42.664;23.308;2023-11-21T05:23:42;19.03;;;14.43;;
6426;SDS011;3246;42.664;23.308;2023-11-21T05:26:09;21.13;;;15.27;;
6426;SDS011;3246;42.664;23.308;2023-11-21T05:28:35;29.77;;;14.73;;
6426;SDS011;3246;42.664;23.308;2023-11-21T05:31:01;35.60;;;15.70;;
6426;SDS011;3246;42.664;23.308;2023-11-21T05:33:29;35.57;;;23.70;;
6426;SDS011;3246;42.664;23.308;2023-11-21T05:35:58;33.33;;;22.83;;
6426;SDS011;3246;42.664;23.308;2023-11-21T05:38:25;34.10;;;20.97;;
6426;SDS011;3246;42.664;23.308;2023-11-21T05:40:51;22.30;;;16.00;;
6426;SDS011;3246;42.664;23.308;2023-11-21T05:43:17;28.80;;;17.57;;
6426;SDS011;3246;42.664;23.308;2023-11-21T05:45:44;26.60;;;17.90;;
6426;SDS011;3246;42.664;23.308;2023-11-21T05:48:10;34.93;;;19.27;;
6426;SDS011;3246;42.664;23.308;2023-11-21T05:50:39;30.37;;;19.40;;
6426;SDS011;3246;42.664;23.308;2023-11-21T05:53:05;30.10;;;18.33;;
6426;SDS011;3246;42.664;23.308;2023-11-21T05:55:32;26.20;;;18.67;;
6426;SDS011;3246;42.664;23.308;2023-11-21T05:57:58;30.17;;;19.67;;
6426;SDS011;3246;42.664;23.308;2023-11-21T06:00:25;32.67;;;21.97;;
6426;SDS011;3246;42.664;23.308;2023-11-21T06:02:53;35.93;;;21.07;;
6426;SDS011;3246;42.664;23.308;2023-11-21T06:05:21;28.67;;;20.17;;
6426;SDS011;3246;42.664;23.308;2023-11-21T06:07:49;28.63;;;18.53;;
6426;SDS011;3246;42.664;23.308;2023-11-21T06:10:16;43.77;;;20.00;;
6426;SDS011;3246;42.664;23.308;2023-11-21T06:12:44;31.87;;;21.40;;
6426;SDS011;3246;42.664;23.308;2023-11-21T06:15:11;27.33;;;19.87;;
6426;SDS011;3246;42.664;23.308;2023-11-21T06:17:40;31.93;;;18.70;;
6426;SDS011;3246;42.664;23.308;2023-11-21T06:20:07;37.97;;;20.70;;
6426;SDS011;3246;42.664;23.308;2023-11-21T06:22:35;28.37;;;19.43;;
6426;SDS011;3246;42.664;23.308;2023-11-21T06:25:03;30.63;;;20.00;;
6426;SDS011;3246;42.664;23.308;2023-11-21T06:27:31;36.53;;;21.00;;
6426;SDS011;3246;42.664;23.308;2023-11-21T06:29:57;33.03;;;21.40;;
6426;SDS011;3246;42.664;23.308;2023-11-21T06:32:23;32.43;;;21.13;;
6426;SDS011;3246;42.664;23.308;2023-11-21T06:34:51;34.47;;;22.23;;
6426;SDS011;3246;42.664;23.308;2023-11-21T06:37:19;36.43;;;20.93;;
6426;SDS011;3246;42.664;23.308;2023-11-21T06:39:46;28.67;;;18.60;;
6426;SDS011;3246;42.664;23.308;2023-11-21T06:42:14;34.53;;;19.30;;
6426;SDS011;3246;42.664;23.308;2023-11-21T06:44:41;34.43;;;20.47;;
6426;SDS011;3246;42.664;23.308;2023-11-21T06:47:08;34.63;;;21.97;;
6426;SDS011;3246;42.664;23.308;2023-11-21T06:49:35;32.37;;;22.53;;
6426;SDS011;3246;42.664;23.308;2023-11-21T06:52:03;39.17;;;25.13;;
6426;SDS011;3246;42.664;23.308;2023-11-21T06:54:30;46.20;;;24.83;;
6426;SDS011;3246;42.664;23.308;2023-11-21T06:56:57;51.23;;;23.17;;
6426;SDS011;3246;42.664;23.308;2023-11-21T06:59:25;31.97;;;22.37;;
6426;SDS011;3246;42.664;23.308;2023-11-21T07:01:52;42.43;;;27.30;;
6426;SDS011;3246;42.664;23.308;2023-11-21T07:04:18;36.80;;;24.67;;
6426;SDS011;3246;42.664;23.308;2023-11-21T07:06:45;34.17;;;24.73;;
6426;SDS011;3246;42.664;23.308;2023-11-21T07:09:11;40.40;;;23.57;;
6426;SDS011;3246;42.664;23.308;2023-11-21T07:11:38;35.67;;;23.50;;
6426;SDS011;3246;42.664;23.308;2023-11-21T07:14:05;35.50;;;21.97;;
6426;SDS011;3246;42.664;23.308;2023-11-21T07:16:34;31.13;;;23.60;;
6426;SDS011;3246;42.664;23.308;2023-11-21T07:19:02;38.50;;;24.57;;
6426;SDS011;3246;42.664;23.308;2023-11-21T07:21:31;39.57;;;22.37;;
6426;SDS011;3246;42.664;23.308;2023-11-21T07:23:57;36.23;;;25.47;;
6426;SDS011;3246;42.664;23.308;2023-11-21T07:26:24;39.27;;;26.50;;
6426;SDS011;3246;42.664;23.308;2023-11-21T07:28:51;35.53;;;25.07;;
6426;SDS011;3246;42.664;23.308;2023-11-21T07:31:17;44.30;;;26.43;;
6426;SDS011;3246;42.664;23.308;2023-11-21T07:33:45;38.73;;;25.23;;
6426;SDS011;3246;42.664;23.308;2023-11-21T07:36:12;36.70;;;23.13;;
6426;SDS011;3246;42.664;23.308;2023-11-21T07:38:39;37.30;;;26.17;;
6426;SDS011;3246;42.664;23.308;2023-11-21T07:41:06;33.53;;;22.47;;
6426;SDS011;3246;42.664;23.308;2023-11-21T07:43:34;44.73;;;24.70;;
6426;SDS011;3246;42.664;23.308;2023-11-21T07:46:00;37.63;;;23.97;;
6426;SDS011;3246;42.664;23.308;2023-11-21T07:48:28;32.43;;;22.27;;
6426;SDS011;3246;42.664;23.308;2023-11-21T07:50:55;36.10;;;24.40;;
6426;SDS011;3246;42.664;23.308;2023-11-21T07:53:23;40.83;;;25.47;;
6426;SDS011;3246;42.664;23.308;2023-11-21T07:55:50;33.80;;;23.57;;
6426;SDS011;3246;42.664;23.308;2023-11-21T07:58:17;35.83;;;22.93;;
6426;SDS011;3246;42.664;23.308;2023-11-21T08:00:43;35.83;;;21.97;;
6426;SDS011;3246;42.664;23.308;2023-11-21T08:03:10;31.63;;;21.83;;
6426;SDS011;3246;42.664;23.308;2023-11-21T08:05:37;34.73;;;21.17;;
6426;SDS011;3246;42.664;23.308;2023-11-21T08:08:05;30.33;;;20.60;;
6426;SDS011;3246;42.664;23.308;2023-11-21T08:10:32;37.57;;;20.87;;
6426;SDS011;3246;42.664;23.308;2023-11-21T08:12:59;29.10;;;21.20;;
6426;SDS011;3246;42.664;23.308;2023-11-21T08:15:25;32.83;;;20.63;;
6426;SDS011;3246;42.664;23.308;2023-11-21T08:17:52;41.70;;;21.70;;
6426;SDS011;3246;42.664;23.308;2023-11-21T08:20:18;36.13;;;24.00;;
6426;SDS011;3246;42.664;23.308;2023-11-21T08:22:45;37.97;;;23.93;;
6426;SDS011;3246;42.664;23.308;2023-11-21T08:25:14;40.77;;;23.70;;
6426;SDS011;3246;42.664;23.308;2023-11-21T08:27:40;38.83;;;23.40;;
6426;SDS011;3246;42.664;23.308;2023-11-21T08:30:07;44.73;;;23.63;;
6426;SDS011;3246;42.664;23.308;2023-11-21T08:32:33;30.80;;;22.40;;
6426;SDS011;3246;42.664;23.308;2023-11-21T08:35:00;35.03;;;22.23;;
6426;SDS011;3246;42.664;23.308;2023-11-21T08:37:27;35.97;;;21.00;;
6426;SDS011;3246;42.664;23.308;2023-11-21T08:39:55;25.17;;;18.40;;
6426;SDS011;3246;42.664;23.308;2023-11-21T08:42:25;26.73;;;18.17;;
6426;SDS011;3246;42.664;23.308;2023-11-21T08:44:53;24.03;;;17.30;;
6426;SDS011;3246;42.664;23.308;2023-11-21T08:47:20;26.77;;;15.73;;
6426;SDS011;3246;42.664;23.308;2023-11-21T08:49:49;24.13;;;17.03;;
6426;SDS011;3246;42.664;23.308;2023-11-21T08:52:18;25.03;;;15.93;;
6426;SDS011;3246;42.664;23.308;2023-11-21T08:54:46;30.80;;;16.97;;
6426;SDS011;3246;42.664;23.308;2023-11-21T08:57:12;27.07;;;18.23;;
6426;SDS011;3246;42.664;23.308;2023-11-21T08:59:40;28.30;;;17.73;;
6426;SDS011;3246;42.664;23.308;2023-11-21T09:02:07;31.10;;;17.53;;
6426;SDS011;3246;42.664;23.308;2023-11-21T09:04:33;28.33;;;18.03;;
6426;SDS011;3246;42.664;23.308;2023-11-21T09:07:00;27.83;;;17.90;;
6426;SDS011;3246;42.664;23.308;2023-11-21T09:09:26;29.07;;;19.30;;
6426;SDS011;3246;42.664;23.308;2023-11-21T09:11:53;32.37;;;19.67;;
6426;SDS011;3246;42.664;23.308;2023-11-21T09:14:19;47.77;;;25.53;;
6426;SDS011;3246;42.664;23.308;2023-11-21T09:16:47;33.30;;;23.13;;
6426;SDS011;3246;42.664;23.308;2023-11-21T09:19:14;48.63;;;26.13;;
6426;SDS011;3246;42.664;23.308;2023-11-21T09:21:40;64.17;;;34.17;;
6426;SDS011;3246;42.664;23.308;2023-11-21T09:24:07;107.93;;;51.73;;
6426;SDS011;3246;42.664;23.308;2023-11-21T09:26:34;64.63;;;35.80;;
6426;SDS011;3246;42.664;23.308;2023-11-21T09:29:01;38.73;;;26.83;;
6426;SDS011;3246;42.664;23.308;2023-11-21T09:31:28;40.87;;;26.90;;
6426;SDS011;3246;42.664;23.308;2023-11-21T09:33:57;38.07;;;26.30;;
6426;SDS011;3246;42.664;23.308;2023-11-21T09:36:24;45.23;;;26.80;;
6426;SDS011;3246;42.664;23.308;2023-11-21T09:38:53;35.53;;;21.67;;
6426;SDS011;3246;42.664;23.308;2023-11-21T09:41:21;29.80;;;21.87;;
6426;SDS011;3246;42.664;23.308;2023-11-21T09:43:49;28.33;;;18.60;;
6426;SDS011;3246;42.664;23.308;2023-11-21T09:46:18;26.27;;;17.77;;
6426;SDS011;3246;42.664;23.308;2023-11-21T09:48:47;22.20;;;17.27;;
6426;SDS011;3246;42.664;23.308;2023-11-21T09:51:19;27.20;;;19.13;;
6426;SDS011;3246;42.664;23.308;2023-11-21T09:53:46;34.50;;;18.80;;
6426;SDS011;3246;42.664;23.308;2023-11-21T09:56:15;25.93;;;16.33;;
6426;SDS011;3246;42.664;23.308;2023-11-21T09:58:44;26.03;;;17.00;;
6426;SDS011;3246;42.664;23.308;2023-11-21T10:01:11;28.90;;;19.87;;
6426;SDS011;3246;42.664;23.308;2023-11-21T10:03:38;26.30;;;19.57;;
6426;SDS011;3246;42.664;23.308;2023-11-21T10:06:05;23.10;;;17.90;;
6426;SDS011;3246;42.664;23.308;2023-11-21T10:08:33;29.63;;;18.80;;
6426;SDS011;3246;42.664;23.308;2023-11-21T10:10:59;31.43;;;19.40;;
6426;SDS011;3246;42.664;23.308;2023-11-21T10:13:27;34.10;;;18.97;;
6426;SDS011;3246;42.664;23.308;2023-11-21T10:15:55;28.77;;;18.33;;
6426;SDS011;3246;42.664;23.308;2023-11-21T10:18:24;22.03;;;16.50;;
6426;SDS011;3246;42.664;23.308;2023-11-21T10:20:52;25.23;;;15.80;;
6426;SDS011;3246;42.664;23.308;2023-11-21T10:23:19;20.17;;;16.30;;
6426;SDS011;3246;42.664;23.308;2023-11-21T10:25:48;28.60;;;20.77;;
6426;SDS011;3246;42.664;23.308;2023-11-21T10:28:14;31.97;;;19.83;;
6426;SDS011;3246;42.664;23.308;2023-11-21T10:30:41;34.80;;;20.37;;
6426;SDS011;3246;42.664;23.308;2023-11-21T10:33:09;24.73;;;19.30;;
6426;SDS011;3246;42.664;23.308;2023-11-21T10:35:42;30.97;;;18.20;;
6426;SDS011;3246;42.664;23.308;2023-11-21T10:38:12;29.63;;;17.97;;
6426;SDS011;3246;42.664;23.308;2023-11-21T10:40:39;39.43;;;19.93;;
6426;SDS011;3246;42.664;23.308;2023-11-21T10:43:08;25.03;;;18.47;;
6426;SDS011;3246;42.664;23.308;2023-11-21T10:45:36;26.90;;;19.33;;
6426;SDS011;3246;42.664;23.308;2023-11-21T10:48:04;28.47;;;18.87;;
6426;SDS011;3246;42.664;23.308;2023-11-21T10:50:30;30.57;;;21.67;;
6426;SDS011;3246;42.664;23.308;2023-11-21T10:53:00;28.50;;;20.67;;
6426;SDS011;3246;42.664;23.308;2023-11-21T10:55:27;36.87;;;22.30;;
6426;SDS011;3246;42.664;23.308;2023-11-21T10:57:54;32.83;;;21.83;;
6426;SDS011;3246;42.664;23.308;2023-11-21T11:00:23;33.70;;;22.33;;
6426;SDS011;3246;42.664;23.308;2023-11-21T11:02:51;28.20;;;21.70;;
6426;SDS011;3246;42.664;23.308;2023-11-21T11:05:19;32.60;;;22.03;;
6426;SDS011;3246;42.664;23.308;2023-11-21T11:07:46;33.30;;;21.33;;
6426;SDS011;3246;42.664;23.308;2023-11-21T11:10:17;33.33;;;20.33;;
6426;SDS011;3246;42.664;23.308;2023-11-21T11:12:46;22.83;;;18.20;;
6426;SDS011;3246;42.664;23.308;2023-11-21T11:15:13;26.03;;;18.83;;
6426;SDS011;3246;42.664;23.308;2023-11-21T11:17:41;29.70;;;15.17;;
6426;SDS011;3246;42.664;23.308;2023-11-21T11:20:10;21.10;;;14.37;;
6426;SDS011;3246;42.664;23.308;2023-11-21T11:22:40;20.13;;;14.67;;
6426;SDS011;3246;42.664;23.308;2023-11-21T11:25:18;26.93;;;17.53;;
6426;SDS011;3246;42.664;23.308;2023-11-21T11:27:50;27.03;;;19.50;;
6426;SDS011;3246;42.664;23.308;2023-11-21T11:30:21;23.17;;;16.67;;
6426;SDS011;3246;42.664;23.308;2023-11-21T11:32:58;23.83;;;18.10;;
6426;SDS011;3246;42.664;23.308;2023-11-21T11:35:29;26.47;;;17.57;;
6426;SDS011;3246;42.664;23.308;2023-11-21T11:37:58;35.10;;;19.70;;
6426;SDS011;3246;42.664;23.308;2023-11-21T11:40:25;27.27;;;17.93;;
6426;SDS011;3246;42.664;23.308;2023-11-21T11:43:05;32.77;;;18.60;;
6426;SDS011;3246;42.664;23.308;2023-11-21T11:45:32;26.30;;;17.10;;
6426;SDS011;3246;42.664;23.308;2023-11-21T11:48:02;26.00;;;17.63;;
6426;SDS011;3246;42.664;23.308;2023-11-21T11:50:29;28.87;;;19.73;;
6426;SDS011;3246;42.664;23.308;2023-11-21T11:52:57;29.03;;;18.67;;
6426;SDS011;3246;42.664;23.308;2023-11-21T11:55:37;23.43;;;16.17;;
6426;SDS011;3246;42.664;23.308;2023-11-21T11:58:05;35.67;;;16.97;;
6426;SDS011;3246;42.664;23.308;2023-11-21T12:00:33;23.63;;;17.67;;
6426;SDS011;3246;42.664;23.308;2023-11-21T12:03:04;22.20;;;16.27;;
6426;SDS011;3246;42.664;23.308;2023-11-21T12:05:32;26.27;;;18.47;;
6426;SDS011;3246;42.664;23.308;2023-11-21T12:08:04;27.13;;;17.23;;
6426;SDS011;3246;42.664;23.308;2023-11-21T12:10:31;23.17;;;15.70;;
6426;SDS011;3246;42.664;23.308;2023-11-21T12:12:58;24.37;;;18.13;;
6426;SDS011;3246;42.664;23.308;2023-11-21T12:15:26;31.70;;;20.30;;
6426;SDS011;3246;42.664;23.308;2023-11-21T12:17:54;28.23;;;20.73;;
6426;SDS011;3246;42.664;23.308;2023-11-21T12:20:23;25.20;;;18.87;;
6426;SDS011;3246;42.664;23.308;2023-11-21T12:22:50;31.30;;;20.70;;
6426;SDS011;3246;42.664;23.308;2023-11-21T12:25:17;28.83;;;19.53;;
6426;SDS011;3246;42.664;23.308;2023-11-21T12:27:45;33.03;;;20.17;;
6426;SDS011;3246;42.664;23.308;2023-11-21T12:30:12;30.17;;;20.27;;
6426;SDS011;3246;42.664;23.308;2023-11-21T12:32:40;30.70;;;21.40;;
6426;SDS011;3246;42.664;23.308;2023-11-21T12:35:08;28.77;;;21.20;;
6426;SDS011;3246;42.664;23.308;2023-11-21T12:37:36;26.00;;;17.90;;
6426;SDS011;3246;42.664;23.308;2023-11-21T12:40:03;35.07;;;20.70;;
6426;SDS011;3246;42.664;23.308;2023-11-21T12:42:31;26.87;;;19.67;;
6426;SDS011;3246;42.664;23.308;2023-11-21T12:45:07;24.23;;;17.33;;
6426;SDS011;3246;42.664;23.308;2023-11-21T12:47:34;26.50;;;17.83;;
6426;SDS011;3246;42.664;23.308;2023-11-21T12:50:01;19.13;;;16.50;;
6426;SDS011;3246;42.664;23.308;2023-11-21T12:52:31;23.73;;;17.23;;
6426;SDS011;3246;42.664;23.308;2023-11-21T12:54:59;28.63;;;18.87;;
6426;SDS011;3246;42.664;23.308;2023-11-21T12:57:26;24.30;;;17.67;;
6426;SDS011;3246;42.664;23.308;2023-11-21T12:59:56;28.90;;;17.67;;
6426;SDS011;3246;42.664;23.308;2023-11-21T13:02:25;28.30;;;18.87;;
6426;SDS011;3246;42.664;23.308;2023-11-21T13:04:52;24.30;;;17.67;;
6426;SDS011;3246;42.664;23.308;2023-11-21T13:07:19;30.67;;;18.53;;
6426;SDS011;3246;42.664;23.308;2023-11-21T13:09:46;31.60;;;17.87;;
6426;SDS011;3246;42.664;23.308;2023-11-21T13:12:14;24.63;;;18.00;;
6426;SDS011;3246;42.664;23.308;2023-11-21T13:14:43;27.33;;;18.97;;
6426;SDS011;3246;42.664;23.308;2023-11-21T13:17:12;24.40;;;18.50;;
6426;SDS011;3246;42.664;23.308;2023-11-21T13:19:38;20.87;;;16.20;;
6426;SDS011;3246;42.664;23.308;2023-11-21T13:22:05;27.43;;;15.23;;
6426;SDS011;3246;42.664;23.308;2023-11-21T13:24:31;23.17;;;16.50;;
6426;SDS011;3246;42.664;23.308;2023-11-21T13:26:58;23.27;;;16.77;;
6426;SDS011;3246;42.664;23.308;2023-11-21T13:29:26;22.00;;;16.67;;
6426;SDS011;3246;42.664;23.308;2023-11-21T13:31:52;31.83;;;18.53;;
6426;SDS011;3246;42.664;23.308;2023-11-21T13:34:20;28.37;;;18.57;;
6426;SDS011;3246;42.664;23.308;2023-11-21T13:36:47;26.10;;;19.73;;
6426;SDS011;3246;42.664;23.308;2023-11-21T13:39:17;33.27;;;21.37;;
6426;SDS011;3246;42.664;23.308;2023-11-21T13:41:44;27.93;;;20.83;;
6426;SDS011;3246;42.664;23.308;2023-11-21T13:44:13;36.83;;;22.47;;
6426;SDS011;3246;42.664;23.308;2023-11-21T13:46:52;32.83;;;24.93;;
6426;SDS011;3246;42.664;23.308;2023-11-21T13:49:21;38.13;;;23.97;;
6426;SDS011;3246;42.664;23.308;2023-11-21T13:51:48;38.13;;;24.50;;
6426;SDS011;3246;42.664;23.308;2023-11-21T13:54:18;34.67;;;24.67;;
6426;SDS011;3246;42.664;23.308;2023-11-21T13:56:49;47.43;;;24.70;;
6426;SDS011;3246;42.664;23.308;2023-11-21T13:59:15;30.13;;;23.63;;
6426;SDS011;3246;42.664;23.308;2023-11-21T14:01:46;37.57;;;24.33;;
6426;SDS011;3246;42.664;23.308;2023-11-21T14:04:26;34.87;;;24.83;;
6426;SDS011;3246;42.664;23.308;2023-11-21T14:07:19;31.67;;;24.87;;
6426;SDS011;3246;42.664;23.308;2023-11-21T14:09:51;30.77;;;23.60;;
6426;SDS011;3246;42.664;23.308;2023-11-21T14:12:18;33.87;;;24.43;;
6426;SDS011;3246;42.664;23.308;2023-11-21T14:14:44;31.33;;;23.87;;
6426;SDS011;3246;42.664;23.308;2023-11-21T14:17:12;33.90;;;24.20;;
6426;SDS011;3246;42.664;23.308;2023-11-21T14:19:40;42.50;;;27.27;;
6426;SDS011;3246;42.664;23.308;2023-11-21T14:22:08;35.57;;;25.00;;
6426;SDS011;3246;42.664;23.308;2023-11-21T14:24:35;40.43;;;25.60;;
6426;SDS011;3246;42.664;23.308;2023-11-21T14:27:02;37.20;;;26.47;;
6426;SDS011;3246;42.664;23.308;2023-11-21T14:29:28;36.13;;;27.10;;
6426;SDS011;3246;42.664;23.308;2023-11-21T14:31:56;35.43;;;26.90;;
6426;SDS011;3246;42.664;23.308;2023-11-21T14:34:23;38.83;;;29.67;;
6426;SDS011;3246;42.664;23.308;2023-11-21T14:36:50;40.27;;;30.33;;